sensor_id;sensor_type;location;lat;lon;timestamp;pressure;altitude;pressure_sealevel;temperature;humidity
35806;BME280;21925;44.608;11.580;2022-11-30T00:00:29;101800.28;;;10.70;100.00
35806;BME280;21925;44.608;11.580;2022-11-30T00:02:56;101806.75;;;10.83;100.00
35806;BME280;21925;44.608;11.580;2022-11-30T00:05:23;101808.66;;;10.99;100.00
35806;BME280;21925;44.608;11.580;2022-11-30T00:07:49;101762.22;;;10.60;100.00
35806;BME280;21925;44.608;11.580;2022-11-30T00:10:16;101802.22;;;10.78;100.00
35806;BME280;21925;44.608;11.580;2022-11-30T00:12:42;101774.16;;;10.47;100.00
35806;BME280;21925;44.608;11.580;2022-11-30T00:15:09;101745.28;;;10.25;100.00
35806;BME280;21925;44.608;11.580;2022-11-30T00:17:43;101784.16;;;10.60;100.00
35806;BME280;21925;44.608;11.580;2022-11-30T00:20:11;101790.75;;;10.51;100.00
35806;BME280;21925;44.608;11.580;2022-11-30T00:22:37;101769.78;;;10.46;100.00
35806;BME280;21925;44.608;11.580;2022-11-30T00:25:03;101778.50;;;10.57;100.00
35806;BME280;21925;44.608;11.580;2022-11-30T00:27:30;101803.16;;;10.32;100.00
35806;BME280;21925;44.608;11.580;2022-11-30T00:29:57;101783.97;;;10.40;100.00
35806;BME280;21925;44.608;11.580;2022-11-30T00:32:26;101798.19;;;10.59;100.00
35806;BME280;21925;44.608;11.580;2022-11-30T00:34:52;101780.41;;;10.23;100.00
35806;BME280;21925;44.608;11.580;2022-11-30T00:37:18;101788.97;;;10.55;100.00
35806;BME280;21925;44.608;11.580;2022-11-30T00:39:44;101783.19;;;10.39;100.00
35806;BME280;21925;44.608;11.580;2022-11-30T00:42:10;101779.44;;;10.35;100.00
35806;BME280;21925;44.608;11.580;2022-11-30T00:44:36;101779.59;;;10.39;100.00
35806;BME280;21925;44.608;11.580;2022-11-30T00:47:02;101755.56;;;10.19;100.00
35806;BME280;21925;44.608;11.580;2022-11-30T00:49:28;101763.28;;;10.09;100.00
35806;BME280;21925;44.608;11.580;2022-11-30T00:51:54;101788.13;;;10.12;100.00
35806;BME280;21925;44.608;11.580;2022-11-30T00:54:20;101804.63;;;10.46;100.00
35806;BME280;21925;44.608;11.580;2022-11-30T00:56:46;101796.84;;;10.31;100.00
35806;BME280;21925;44.608;11.580;2022-11-30T00:59:12;101821.69;;;10.18;100.00
35806;BME280;21925;44.608;11.580;2022-11-30T01:01:38;101817.00;;;10.27;100.00
35806;BME280;21925;44.608;11.580;2022-11-30T01:04:04;101810.38;;;10.28;100.00
35806;BME280;21925;44.608;11.580;2022-11-30T01:06:30;101819.28;;;10.25;100.00
35806;BME280;21925;44.608;11.580;2022-11-30T01:08:57;101815.91;;;10.36;100.00
35806;BME280;21925;44.608;11.580;2022-11-30T01:11:25;101777.97;;;10.13;100.00
35806;BME280;21925;44.608;11.580;2022-11-30T01:13:53;101795.22;;;10.13;100.00
35806;BME280;21925;44.608;11.580;2022-11-30T01:16:22;101815.19;;;10.05;100.00
35806;BME280;21925;44.608;11.580;2022-11-30T01:18:48;101778.81;;;9.83;100.00
35806;BME280;21925;44.608;11.580;2022-11-30T01:21:18;101816.94;;;10.10;100.00
35806;BME280;21925;44.608;11.580;2022-11-30T01:23:45;101802.13;;;10.11;100.00
35806;BME280;21925;44.608;11.580;2022-11-30T01:26:11;101778.19;;;9.94;100.00
35806;BME280;21925;44.608;11.580;2022-11-30T01:28:38;101766.34;;;9.68;100.00
35806;BME280;21925;44.608;11.580;2022-11-30T01:31:07;101753.16;;;9.79;100.00
35806;BME280;21925;44.608;11.580;2022-11-30T01:33:34;101762.56;;;9.86;100.00
35806;BME280;21925;44.608;11.580;2022-11-30T01:38:42;101789.63;;;9.88;100.00
35806;BME280;21925;44.608;11.580;2022-11-30T01:41:10;101811.88;;;9.95;100.00
35806;BME280;21925;44.608;11.580;2022-11-30T01:43:41;101813.41;;;10.01;100.00
35806;BME280;21925;44.608;11.580;2022-11-30T01:46:41;101813.50;;;9.96;100.00
35806;BME280;21925;44.608;11.580;2022-11-30T01:54:04;101813.91;;;9.81;100.00
35806;BME280;21925;44.608;11.580;2022-11-30T01:56:30;101813.84;;;9.64;100.00
35806;BME280;21925;44.608;11.580;2022-11-30T01:58:57;101811.34;;;9.76;100.00
35806;BME280;21925;44.608;11.580;2022-11-30T02:01:24;101802.56;;;9.65;100.00
35806;BME280;21925;44.608;11.580;2022-11-30T02:03:58;101808.38;;;9.64;100.00
35806;BME280;21925;44.608;11.580;2022-11-30T02:06:24;101801.47;;;9.36;100.00
35806;BME280;21925;44.608;11.580;2022-11-30T02:08:51;101744.94;;;9.10;100.00
35806;BME280;21925;44.608;11.580;2022-11-30T02:11:18;101813.50;;;9.57;100.00
35806;BME280;21925;44.608;11.580;2022-11-30T02:19:34;101806.84;;;9.49;100.00
35806;BME280;21925;44.608;11.580;2022-11-30T02:30:17;101777.66;;;9.45;100.00
35806;BME280;21925;44.608;11.580;2022-11-30T02:32:58;101821.84;;;9.52;100.00
35806;BME280;21925;44.608;11.580;2022-11-30T02:35:29;101788.00;;;9.48;100.00
35806;BME280;21925;44.608;11.580;2022-11-30T02:37:59;101783.06;;;9.28;100.00
35806;BME280;21925;44.608;11.580;2022-11-30T02:40:26;101756.63;;;8.93;100.00
35806;BME280;21925;44.608;11.580;2022-11-30T02:42:53;101807.41;;;9.38;100.00
35806;BME280;21925;44.608;11.580;2022-11-30T02:45:27;101740.31;;;9.10;100.00
35806;BME280;21925;44.608;11.580;2022-11-30T02:47:59;101767.72;;;8.97;100.00
35806;BME280;21925;44.608;11.580;2022-11-30T02:50:34;101815.53;;;9.21;100.00
35806;BME280;21925;44.608;11.580;2022-11-30T02:53:02;101797.22;;;9.00;100.00
35806;BME280;21925;44.608;11.580;2022-11-30T02:55:28;101817.28;;;9.17;100.00
35806;BME280;21925;44.608;11.580;2022-11-30T02:57:56;101821.50;;;9.23;100.00
35806;BME280;21925;44.608;11.580;2022-11-30T03:00:22;101803.47;;;9.22;100.00
35806;BME280;21925;44.608;11.580;2022-11-30T03:02:48;101830.13;;;9.17;100.00
35806;BME280;21925;44.608;11.580;2022-11-30T03:05:14;101820.69;;;9.23;100.00
35806;BME280;21925;44.608;11.580;2022-11-30T03:07:40;101822.06;;;9.12;100.00
35806;BME280;21925;44.608;11.580;2022-11-30T03:10:07;101815.22;;;9.01;100.00
35806;BME280;21925;44.608;11.580;2022-11-30T03:12:33;101829.59;;;9.06;100.00
35806;BME280;21925;44.608;11.580;2022-11-30T03:14:59;101823.75;;;8.99;100.00
35806;BME280;21925;44.608;11.580;2022-11-30T03:17:25;101807.97;;;8.96;100.00
35806;BME280;21925;44.608;11.580;2022-11-30T03:19:52;101739.81;;;8.43;100.00
35806;BME280;21925;44.608;11.580;2022-11-30T03:22:17;101826.09;;;8.92;100.00
35806;BME280;21925;44.608;11.580;2022-11-30T03:24:43;101829.34;;;8.94;100.00
35806;BME280;21925;44.608;11.580;2022-11-30T03:27:09;101807.84;;;8.79;100.00
35806;BME280;21925;44.608;11.580;2022-11-30T03:29:35;101772.88;;;8.55;100.00
35806;BME280;21925;44.608;11.580;2022-11-30T03:32:01;101827.72;;;8.93;100.00
35806;BME280;21925;44.608;11.580;2022-11-30T03:34:27;101812.66;;;8.82;99.29
35806;BME280;21925;44.608;11.580;2022-11-30T03:36:53;101814.03;;;8.93;98.56
35806;BME280;21925;44.608;11.580;2022-11-30T03:39:19;101781.28;;;8.80;96.82
35806;BME280;21925;44.608;11.580;2022-11-30T03:41:45;101819.75;;;8.83;96.00
35806;BME280;21925;44.608;11.580;2022-11-30T03:44:11;101793.09;;;8.89;95.29
35806;BME280;21925;44.608;11.580;2022-11-30T03:46:37;101803.97;;;9.02;93.76
35806;BME280;21925;44.608;11.580;2022-11-30T03:49:03;101822.13;;;8.98;92.54
35806;BME280;21925;44.608;11.580;2022-11-30T03:51:29;101817.38;;;8.90;92.08
35806;BME280;21925;44.608;11.580;2022-11-30T03:53:54;101808.00;;;8.83;90.54
35806;BME280;21925;44.608;11.580;2022-11-30T03:56:20;101793.53;;;8.82;90.74
35806;BME280;21925;44.608;11.580;2022-11-30T03:58:46;101821.97;;;8.81;91.23
35806;BME280;21925;44.608;11.580;2022-11-30T04:01:15;101830.09;;;8.86;91.77
35806;BME280;21925;44.608;11.580;2022-11-30T04:03:42;101810.88;;;8.65;91.77
35806;BME280;21925;44.608;11.580;2022-11-30T04:06:10;101812.06;;;8.85;91.84
35806;BME280;21925;44.608;11.580;2022-11-30T04:08:36;101829.72;;;8.79;90.99
35806;BME280;21925;44.608;11.580;2022-11-30T04:11:04;101801.56;;;8.66;91.55
35806;BME280;21925;44.608;11.580;2022-11-30T04:13:31;101770.38;;;8.45;91.13
35806;BME280;21925;44.608;11.580;2022-11-30T04:15:58;101829.19;;;8.77;90.71
35806;BME280;21925;44.608;11.580;2022-11-30T04:18:26;101778.03;;;8.78;89.97
35806;BME280;21925;44.608;11.580;2022-11-30T04:20:54;101767.16;;;8.65;88.34
35806;BME280;21925;44.608;11.580;2022-11-30T04:23:22;101833.69;;;8.95;88.53
35806;BME280;21925;44.608;11.580;2022-11-30T04:25:48;101826.09;;;8.92;88.63
35806;BME280;21925;44.608;11.580;2022-11-30T04:28:15;101830.09;;;8.86;88.73
35806;BME280;21925;44.608;11.580;2022-11-30T04:30:41;101825.44;;;8.73;89.50
35806;BME280;21925;44.608;11.580;2022-11-30T04:33:08;101833.88;;;8.99;89.77
35806;BME280;21925;44.608;11.580;2022-11-30T04:35:42;101808.28;;;8.60;90.13
35806;BME280;21925;44.608;11.580;2022-11-30T04:38:09;101832.50;;;8.53;91.10
35806;BME280;21925;44.608;11.580;2022-11-30T04:40:41;101839.97;;;8.96;90.56
35806;BME280;21925;44.608;11.580;2022-11-30T04:43:08;101844.50;;;9.00;89.37
35806;BME280;21925;44.608;11.580;2022-11-30T04:45:35;101829.84;;;8.96;89.29
35806;BME280;21925;44.608;11.580;2022-11-30T04:48:02;101799.63;;;9.01;88.13
35806;BME280;21925;44.608;11.580;2022-11-30T04:50:28;101811.81;;;8.95;88.61
35806;BME280;21925;44.608;11.580;2022-11-30T04:52:54;101839.41;;;9.07;89.37
35806;BME280;21925;44.608;11.580;2022-11-30T04:55:20;101829.38;;;8.81;89.76
35806;BME280;21925;44.608;11.580;2022-11-30T04:57:46;101813.34;;;8.66;90.21
35806;BME280;21925;44.608;11.580;2022-11-30T05:00:14;101802.56;;;8.83;88.89
35806;BME280;21925;44.608;11.580;2022-11-30T05:02:41;101836.47;;;9.04;88.53
35806;BME280;21925;44.608;11.580;2022-11-30T05:05:08;101846.50;;;8.86;89.20
35806;BME280;21925;44.608;11.580;2022-11-30T05:07:34;101821.28;;;9.11;89.10
35806;BME280;21925;44.608;11.580;2022-11-30T05:10:00;101840.59;;;8.58;88.78
35806;BME280;21925;44.608;11.580;2022-11-30T05:12:26;101831.09;;;8.77;90.43
35806;BME280;21925;44.608;11.580;2022-11-30T05:14:52;101843.38;;;8.79;90.37
35806;BME280;21925;44.608;11.580;2022-11-30T05:17:18;101856.88;;;8.63;90.68
35806;BME280;21925;44.608;11.580;2022-11-30T05:19:44;101826.84;;;8.84;90.00
35806;BME280;21925;44.608;11.580;2022-11-30T05:22:10;101817.94;;;8.44;90.26
35806;BME280;21925;44.608;11.580;2022-11-30T05:24:35;101791.75;;;8.65;90.64
35806;BME280;21925;44.608;11.580;2022-11-30T05:27:01;101765.16;;;8.57;89.69
35806;BME280;21925;44.608;11.580;2022-11-30T05:29:27;101830.19;;;8.81;89.86
35806;BME280;21925;44.608;11.580;2022-11-30T05:31:53;101759.66;;;8.35;90.02
35806;BME280;21925;44.608;11.580;2022-11-30T05:34:19;101783.19;;;8.58;89.21
35806;BME280;21925;44.608;11.580;2022-11-30T05:36:45;101817.56;;;8.94;87.17
35806;BME280;21925;44.608;11.580;2022-11-30T05:39:10;101855.06;;;9.15;85.56
35806;BME280;21925;44.608;11.580;2022-11-30T05:41:36;101855.81;;;9.29;84.71
35806;BME280;21925;44.608;11.580;2022-11-30T05:44:03;101826.47;;;8.99;86.79
35806;BME280;21925;44.608;11.580;2022-11-30T05:46:29;101774.00;;;8.54;86.69
35806;BME280;21925;44.608;11.580;2022-11-30T05:48:55;101836.16;;;9.05;85.33
35806;BME280;21925;44.608;11.580;2022-11-30T05:51:21;101869.03;;;9.27;84.69
35806;BME280;21925;44.608;11.580;2022-11-30T05:53:47;101791.75;;;8.65;84.65
35806;BME280;21925;44.608;11.580;2022-11-30T05:56:17;101866.53;;;9.17;85.13
35806;BME280;21925;44.608;11.580;2022-11-30T05:58:44;101833.38;;;8.97;84.81
35806;BME280;21925;44.608;11.580;2022-11-30T06:01:27;101873.31;;;9.20;85.18
35806;BME280;21925;44.608;11.580;2022-11-30T06:03:56;101859.94;;;9.18;84.44
35806;BME280;21925;44.608;11.580;2022-11-30T06:06:26;101838.06;;;8.96;84.13
35806;BME280;21925;44.608;11.580;2022-11-30T06:08:53;101869.91;;;9.01;85.06
35806;BME280;21925;44.608;11.580;2022-11-30T06:11:19;101872.59;;;8.92;86.36
35806;BME280;21925;44.608;11.580;2022-11-30T06:13:45;101872.81;;;8.82;87.03
35806;BME280;21925;44.608;11.580;2022-11-30T06:16:12;101811.16;;;8.41;88.02
35806;BME280;21925;44.608;11.580;2022-11-30T06:18:38;101844.94;;;8.59;88.72
35806;BME280;21925;44.608;11.580;2022-11-30T06:21:10;101875.31;;;8.71;89.40
35806;BME280;21925;44.608;11.580;2022-11-30T06:23:36;101879.94;;;8.70;88.99
35806;BME280;21925;44.608;11.580;2022-11-30T06:26:07;101874.78;;;8.69;88.95
35806;BME280;21925;44.608;11.580;2022-11-30T06:28:35;101883.22;;;8.45;89.55
35806;BME280;21925;44.608;11.580;2022-11-30T06:31:03;101883.00;;;8.55;89.93
35806;BME280;21925;44.608;11.580;2022-11-30T06:33:30;101883.41;;;8.49;90.25
35806;BME280;21925;44.608;11.580;2022-11-30T06:35:55;101888.47;;;8.69;90.30
35806;BME280;21925;44.608;11.580;2022-11-30T06:38:22;101858.19;;;8.65;88.88
35806;BME280;21925;44.608;11.580;2022-11-30T06:40:48;101884.94;;;9.03;86.68
35806;BME280;21925;44.608;11.580;2022-11-30T06:43:17;101888.47;;;9.26;85.10
35806;BME280;21925;44.608;11.580;2022-11-30T06:45:45;101878.44;;;9.21;84.05
35806;BME280;21925;44.608;11.580;2022-11-30T06:48:11;101833.09;;;8.85;83.29
35806;BME280;21925;44.608;11.580;2022-11-30T06:50:37;101805.56;;;8.60;83.05
35806;BME280;21925;44.608;11.580;2022-11-30T06:53:03;101818.63;;;8.63;83.73
35806;BME280;21925;44.608;11.580;2022-11-30T06:55:29;101849.00;;;8.96;83.69
35806;BME280;21925;44.608;11.580;2022-11-30T06:58:07;101877.84;;;9.24;82.16
35806;BME280;21925;44.608;11.580;2022-11-30T07:00:33;101769.38;;;8.76;81.27
35806;BME280;21925;44.608;11.580;2022-11-30T07:02:59;101822.13;;;8.98;81.74
35806;BME280;21925;44.608;11.580;2022-11-30T07:05:25;101876.47;;;9.13;82.32
35806;BME280;21925;44.608;11.580;2022-11-30T07:07:51;101790.59;;;8.79;82.98
35806;BME280;21925;44.608;11.580;2022-11-30T07:10:17;101881.56;;;9.50;82.46
35806;BME280;21925;44.608;11.580;2022-11-30T07:12:43;101884.31;;;9.50;80.22
35806;BME280;21925;44.608;11.580;2022-11-30T07:15:10;101877.47;;;9.39;79.86
35806;BME280;21925;44.608;11.580;2022-11-30T07:17:36;101821.78;;;8.78;81.41
35806;BME280;21925;44.608;11.580;2022-11-30T07:20:01;101778.91;;;8.30;82.64
35806;BME280;21925;44.608;11.580;2022-11-30T07:22:27;101826.47;;;8.42;85.79
35806;BME280;21925;44.608;11.580;2022-11-30T07:24:53;101823.00;;;8.85;85.88
35806;BME280;21925;44.608;11.580;2022-11-30T07:27:37;101876.91;;;9.07;86.38
35806;BME280;21925;44.608;11.580;2022-11-30T07:30:04;101838.09;;;8.83;87.26
35806;BME280;21925;44.608;11.580;2022-11-30T07:32:30;101895.63;;;9.13;87.79
35806;BME280;21925;44.608;11.580;2022-11-30T07:34:56;101891.00;;;9.00;89.11
35806;BME280;21925;44.608;11.580;2022-11-30T07:37:22;101889.94;;;9.10;89.18
35806;BME280;21925;44.608;11.580;2022-11-30T07:39:48;101893.63;;;9.05;89.63
35806;BME280;21925;44.608;11.580;2022-11-30T07:42:16;101821.50;;;8.79;90.74
35806;BME280;21925;44.608;11.580;2022-11-30T07:44:42;101847.00;;;9.10;90.26
35806;BME280;21925;44.608;11.580;2022-11-30T07:47:09;101883.81;;;9.26;90.27
35806;BME280;21925;44.608;11.580;2022-11-30T07:49:35;101890.66;;;9.15;91.35
35806;BME280;21925;44.608;11.580;2022-11-30T07:52:01;101902.28;;;9.21;92.41
35806;BME280;21925;44.608;11.580;2022-11-30T07:54:28;101910.81;;;9.19;92.73
35806;BME280;21925;44.608;11.580;2022-11-30T07:56:54;101907.06;;;9.37;92.02
35806;BME280;21925;44.608;11.580;2022-11-30T07:59:20;101896.56;;;9.52;91.39
35806;BME280;21925;44.608;11.580;2022-11-30T08:01:47;101849.56;;;9.07;91.25
35806;BME280;21925;44.608;11.580;2022-11-30T08:04:12;101846.38;;;9.13;91.31
35806;BME280;21925;44.608;11.580;2022-11-30T08:06:39;101753.44;;;8.56;90.65
35806;BME280;21925;44.608;11.580;2022-11-30T08:09:05;101831.19;;;9.29;90.07
35806;BME280;21925;44.608;11.580;2022-11-30T08:11:33;101930.16;;;9.66;91.15
35806;BME280;21925;44.608;11.580;2022-11-30T08:14:00;101826.47;;;9.21;92.36
35806;BME280;21925;44.608;11.580;2022-11-30T08:16:27;101862.41;;;9.50;92.75
35806;BME280;21925;44.608;11.580;2022-11-30T08:18:56;101913.31;;;9.81;92.95
35806;BME280;21925;44.608;11.580;2022-11-30T08:21:22;101923.91;;;9.96;92.79
35806;BME280;21925;44.608;11.580;2022-11-30T08:23:53;101909.75;;;10.03;92.42
35806;BME280;21925;44.608;11.580;2022-11-30T08:26:29;101845.41;;;9.61;93.04
35806;BME280;21925;44.608;11.580;2022-11-30T08:28:55;101847.78;;;9.54;93.95
35806;BME280;21925;44.608;11.580;2022-11-30T08:31:30;101927.22;;;10.07;94.63
35806;BME280;21925;44.608;11.580;2022-11-30T08:34:16;101786.34;;;9.17;95.13
35806;BME280;21925;44.608;11.580;2022-11-30T08:36:42;101879.03;;;9.84;95.63
35806;BME280;21925;44.608;11.580;2022-11-30T08:39:11;101920.25;;;10.01;96.34
35806;BME280;21925;44.608;11.580;2022-11-30T08:41:37;101882.91;;;9.83;96.62
35806;BME280;21925;44.608;11.580;2022-11-30T08:44:04;101921.28;;;9.91;96.80
35806;BME280;21925;44.608;11.580;2022-11-30T08:46:30;101917.59;;;9.96;96.36
35806;BME280;21925;44.608;11.580;2022-11-30T08:48:57;101937.31;;;10.36;96.58
35806;BME280;21925;44.608;11.580;2022-11-30T08:51:23;101918.63;;;10.38;94.63
35806;BME280;21925;44.608;11.580;2022-11-30T08:53:49;101916.94;;;10.21;95.40
35806;BME280;21925;44.608;11.580;2022-11-30T08:56:17;101936.81;;;10.34;93.75
35806;BME280;21925;44.608;11.580;2022-11-30T08:58:44;101931.44;;;9.91;94.37
35806;BME280;21925;44.608;11.580;2022-11-30T09:01:19;101957.50;;;10.40;94.48
35806;BME280;21925;44.608;11.580;2022-11-30T09:03:47;101929.56;;;10.30;92.72
35806;BME280;21925;44.608;11.580;2022-11-30T09:06:15;101926.00;;;10.30;93.19
35806;BME280;21925;44.608;11.580;2022-11-30T09:08:43;101948.69;;;10.52;93.40
35806;BME280;21925;44.608;11.580;2022-11-30T09:13:38;101939.84;;;10.63;92.39
35806;BME280;21925;44.608;11.580;2022-11-30T09:16:04;101919.69;;;10.76;91.09
35806;BME280;21925;44.608;11.580;2022-11-30T09:18:30;101932.75;;;10.62;90.28
35806;BME280;21925;44.608;11.580;2022-11-30T09:21:08;101929.31;;;10.48;90.13
35806;BME280;21925;44.608;11.580;2022-11-30T09:23:34;101929.16;;;10.53;91.95
35806;BME280;21925;44.608;11.580;2022-11-30T09:26:02;101903.66;;;10.44;91.28
35806;BME280;21925;44.608;11.580;2022-11-30T09:28:29;101896.44;;;10.57;90.32
35806;BME280;21925;44.608;11.580;2022-11-30T09:31:15;101954.13;;;10.99;87.85
35806;BME280;21925;44.608;11.580;2022-11-30T09:33:41;101928.09;;;10.71;87.76
35806;BME280;21925;44.608;11.580;2022-11-30T09:36:10;101916.47;;;10.74;88.84
35806;BME280;21925;44.608;11.580;2022-11-30T09:38:37;101895.66;;;10.73;88.39
35806;BME280;21925;44.608;11.580;2022-11-30T09:41:28;101893.88;;;10.77;87.33
35806;BME280;21925;44.608;11.580;2022-11-30T09:46:23;101860.63;;;10.62;88.31
35806;BME280;21925;44.608;11.580;2022-11-30T09:49:01;101911.94;;;10.61;88.13
35806;BME280;21925;44.608;11.580;2022-11-30T09:51:46;101893.59;;;10.87;88.17
35806;BME280;21925;44.608;11.580;2022-11-30T09:54:20;101914.75;;;11.12;86.76
35806;BME280;21925;44.608;11.580;2022-11-30T09:56:47;101904.25;;;11.14;86.74
35806;BME280;21925;44.608;11.580;2022-11-30T09:59:22;101912.00;;;11.29;87.63
35806;BME280;21925;44.608;11.580;2022-11-30T10:01:51;101937.19;;;11.39;87.61
35806;BME280;21925;44.608;11.580;2022-11-30T10:07:04;101897.78;;;11.44;88.96
35806;BME280;21925;44.608;11.580;2022-11-30T10:09:53;101918.78;;;11.57;88.32
35806;BME280;21925;44.608;11.580;2022-11-30T10:12:26;101919.13;;;11.47;87.02
35806;BME280;21925;44.608;11.580;2022-11-30T10:14:59;101909.38;;;11.75;86.70
35806;BME280;21925;44.608;11.580;2022-11-30T10:25:59;101897.19;;;12.01;82.24
35806;BME280;21925;44.608;11.580;2022-11-30T10:31:12;101898.59;;;12.15;80.74
35806;BME280;21925;44.608;11.580;2022-11-30T10:33:53;101903.78;;;12.08;81.42
35806;BME280;21925;44.608;11.580;2022-11-30T10:39:01;101832.09;;;11.85;79.42
35806;BME280;21925;44.608;11.580;2022-11-30T10:41:48;101880.75;;;12.21;80.04
35806;BME280;21925;44.608;11.580;2022-11-30T10:44:25;101891.91;;;12.25;80.12
35806;BME280;21925;44.608;11.580;2022-11-30T10:47:06;101879.59;;;12.31;79.90
35806;BME280;21925;44.608;11.580;2022-11-30T10:49:37;101891.00;;;12.70;79.90
35806;BME280;21925;44.608;11.580;2022-11-30T10:52:08;101886.19;;;12.38;77.43
35806;BME280;21925;44.608;11.580;2022-11-30T10:54:36;101881.75;;;12.17;78.13
35806;BME280;21925;44.608;11.580;2022-11-30T10:57:03;101882.31;;;12.39;78.45
35806;BME280;21925;44.608;11.580;2022-11-30T11:08:18;101881.38;;;12.84;78.21
35806;BME280;21925;44.608;11.580;2022-11-30T11:10:49;101859.25;;;12.72;78.63
35806;BME280;21925;44.608;11.580;2022-11-30T11:13:20;101856.78;;;12.88;78.61
35806;BME280;21925;44.608;11.580;2022-11-30T11:16:00;101844.91;;;12.67;79.57
35806;BME280;21925;44.608;11.580;2022-11-30T11:18:28;101866.25;;;12.99;77.88
35806;BME280;21925;44.608;11.580;2022-11-30T11:21:15;101872.88;;;13.18;79.32
35806;BME280;21925;44.608;11.580;2022-11-30T11:23:43;101841.75;;;12.77;79.48
35806;BME280;21925;44.608;11.580;2022-11-30T11:26:21;101856.47;;;12.81;79.16
35806;BME280;21925;44.608;11.580;2022-11-30T11:28:50;101872.63;;;12.91;79.92
35806;BME280;21925;44.608;11.580;2022-11-30T11:33:57;101862.00;;;13.01;79.62
35806;BME280;21925;44.608;11.580;2022-11-30T11:36:28;101861.72;;;13.35;79.62
35806;BME280;21925;44.608;11.580;2022-11-30T11:38:55;101844.88;;;12.96;79.74
35806;BME280;21925;44.608;11.580;2022-11-30T11:41:29;101862.25;;;13.29;80.05
35806;BME280;21925;44.608;11.580;2022-11-30T11:46:30;101867.41;;;13.30;78.63
35806;BME280;21925;44.608;11.580;2022-11-30T11:49:02;101839.31;;;13.37;79.66
35806;BME280;21925;44.608;11.580;2022-11-30T11:51:33;101813.94;;;12.99;75.80
35806;BME280;21925;44.608;11.580;2022-11-30T11:54:22;101862.84;;;13.66;71.14
35806;BME280;21925;44.608;11.580;2022-11-30T11:56:52;101862.63;;;13.71;71.19
35806;BME280;21925;44.608;11.580;2022-11-30T11:59:54;101858.47;;;13.65;68.19
35806;BME280;21925;44.608;11.580;2022-11-30T12:04:54;101832.13;;;13.44;66.42
35806;BME280;21925;44.608;11.580;2022-11-30T12:08:16;101842.94;;;13.61;68.27
35806;BME280;21925;44.608;11.580;2022-11-30T12:10:29;101849.28;;;13.61;67.63
35806;BME280;21925;44.608;11.580;2022-11-30T12:12:57;101840.47;;;13.68;68.14
35806;BME280;21925;44.608;11.580;2022-11-30T12:15:50;101847.91;;;13.67;69.01
35806;BME280;21925;44.608;11.580;2022-11-30T12:34:59;101825.56;;;13.93;69.62
35806;BME280;21925;44.608;11.580;2022-11-30T12:40:21;101824.38;;;13.70;71.04
35806;BME280;21925;44.608;11.580;2022-11-30T12:45:36;101817.84;;;13.86;74.86
35806;BME280;21925;44.608;11.580;2022-11-30T12:51:16;101802.59;;;13.77;75.11
35806;BME280;21925;44.608;11.580;2022-11-30T12:56:43;101773.63;;;13.83;73.69
35806;BME280;21925;44.608;11.580;2022-11-30T13:02:15;101806.47;;;13.88;72.61
35806;BME280;21925;44.608;11.580;2022-11-30T13:05:09;101817.63;;;13.79;72.88
35806;BME280;21925;44.608;11.580;2022-11-30T13:10:25;101811.19;;;13.99;72.91
35806;BME280;21925;44.608;11.580;2022-11-30T13:12:53;101812.34;;;13.86;71.43
35806;BME280;21925;44.608;11.580;2022-11-30T13:15:27;101801.31;;;13.86;70.98
35806;BME280;21925;44.608;11.580;2022-11-30T13:17:55;101803.56;;;14.17;70.67
35806;BME280;21925;44.608;11.580;2022-11-30T13:20:42;101814.91;;;14.15;68.84
35806;BME280;21925;44.608;11.580;2022-11-30T13:23:23;101804.47;;;14.33;69.18
35806;BME280;21925;44.608;11.580;2022-11-30T13:32:10;101778.44;;;13.86;70.75
35806;BME280;21925;44.608;11.580;2022-11-30T13:34:37;101787.63;;;14.02;70.29
35806;BME280;21925;44.608;11.580;2022-11-30T13:37:10;101800.69;;;14.13;69.22
35806;BME280;21925;44.608;11.580;2022-11-30T13:44:33;101794.75;;;14.03;69.44
35806;BME280;21925;44.608;11.580;2022-11-30T13:47:02;101773.63;;;13.83;70.29
35806;BME280;21925;44.608;11.580;2022-11-30T13:49:30;101795.91;;;13.90;71.26
35806;BME280;21925;44.608;11.580;2022-11-30T13:51:58;101769.63;;;13.80;71.01
35806;BME280;21925;44.608;11.580;2022-11-30T13:59:59;101756.88;;;13.76;70.20
35806;BME280;21925;44.608;11.580;2022-11-30T14:10:37;101779.72;;;13.76;70.25
35806;BME280;21925;44.608;11.580;2022-11-30T14:13:27;101765.22;;;13.67;70.53
35806;BME280;21925;44.608;11.580;2022-11-30T14:15:59;101795.91;;;13.90;69.96
35806;BME280;21925;44.608;11.580;2022-11-30T14:21:23;101796.88;;;13.50;71.36
35806;BME280;21925;44.608;11.580;2022-11-30T14:26:29;101790.81;;;13.44;72.09
35806;BME280;21925;44.608;11.580;2022-11-30T14:34:34;101772.69;;;13.67;71.54
35806;BME280;21925;44.608;11.580;2022-11-30T14:37:23;101792.09;;;13.58;71.54
35806;BME280;21925;44.608;11.580;2022-11-30T14:39:54;101778.75;;;13.49;70.58
35806;BME280;21925;44.608;11.580;2022-11-30T14:42:25;101714.91;;;13.35;71.26
35806;BME280;21925;44.608;11.580;2022-11-30T14:44:52;101712.13;;;13.35;70.69
35806;BME280;21925;44.608;11.580;2022-11-30T14:47:26;101777.44;;;14.02;70.21
35806;BME280;21925;44.608;11.580;2022-11-30T14:49:54;101750.97;;;13.89;70.10
35806;BME280;21925;44.608;11.580;2022-11-30T15:00:54;101784.78;;;13.86;69.37
35806;BME280;21925;44.608;11.580;2022-11-30T15:03:28;101776.88;;;13.85;69.96
35806;BME280;21925;44.608;11.580;2022-11-30T15:06:00;101750.06;;;13.61;70.38
35806;BME280;21925;44.608;11.580;2022-11-30T15:08:49;101769.91;;;13.55;71.16
35806;BME280;21925;44.608;11.580;2022-11-30T15:11:16;101755.97;;;13.28;71.86